sensor_id;sensor_type;location;lat;lon;timestamp;pressure;altitude;pressure_sealevel;temperature;humidity
55191;BME280;41070;50.360;18.742;2023-06-14T00:00:41;98626.04;;;12.16;76.51
55191;BME280;41070;50.360;18.742;2023-06-14T00:03:29;98625.59;;;12.14;76.61
55191;BME280;41070;50.360;18.742;2023-06-14T00:05:55;98629.54;;;12.12;76.84
55191;BME280;41070;50.360;18.742;2023-06-14T00:08:21;98625.13;;;12.09;76.74
55191;BME280;41070;50.360;18.742;2023-06-14T00:10:48;98624.73;;;12.06;76.84
55191;BME280;41070;50.360;18.742;2023-06-14T00:13:14;98629.63;;;11.98;76.84
55191;BME280;41070;50.360;18.742;2023-06-14T00:15:40;98629.17;;;11.95;77.13
55191;BME280;41070;50.360;18.742;2023-06-14T00:18:06;98629.36;;;11.93;77.12
55191;BME280;41070;50.360;18.742;2023-06-14T00:20:33;98631.38;;;11.94;76.97
55191;BME280;41070;50.360;18.742;2023-06-14T00:22:59;98634.05;;;11.94;77.07
55191;BME280;41070;50.360;18.742;2023-06-14T00:25:26;98627.73;;;11.92;77.08
55191;BME280;41070;50.360;18.742;2023-06-14T00:27:53;98627.80;;;11.89;76.82
55191;BME280;41070;50.360;18.742;2023-06-14T00:30:19;98626.21;;;11.87;77.05
55191;BME280;41070;50.360;18.742;2023-06-14T00:32:46;98624.02;;;11.85;77.00
55191;BME280;41070;50.360;18.742;2023-06-14T00:35:12;98621.22;;;11.86;77.12
55191;BME280;41070;50.360;18.742;2023-06-14T00:37:38;98619.24;;;11.87;77.05
55191;BME280;41070;50.360;18.742;2023-06-14T00:40:05;98619.13;;;11.90;76.85
55191;BME280;41070;50.360;18.742;2023-06-14T00:42:31;98612.77;;;11.94;76.79
55191;BME280;41070;50.360;18.742;2023-06-14T00:44:57;98613.23;;;11.98;76.79
55191;BME280;41070;50.360;18.742;2023-06-14T00:47:23;98609.49;;;12.03;76.76
55191;BME280;41070;50.360;18.742;2023-06-14T00:49:50;98611.69;;;12.05;76.65
55191;BME280;41070;50.360;18.742;2023-06-14T00:52:17;98606.41;;;12.06;76.44
55191;BME280;41070;50.360;18.742;2023-06-14T00:54:43;98606.34;;;12.05;76.44
55191;BME280;41070;50.360;18.742;2023-06-14T00:57:10;98603.58;;;12.05;76.18
55191;BME280;41070;50.360;18.742;2023-06-14T00:59:44;98604.80;;;12.05;76.01
55191;BME280;41070;50.360;18.742;2023-06-14T01:02:11;98599.35;;;12.05;75.94
55191;BME280;41070;50.360;18.742;2023-06-14T01:04:38;98599.66;;;12.05;75.73
55191;BME280;41070;50.360;18.742;2023-06-14T01:15:08;98601.27;;;11.93;75.30
55191;BME280;41070;50.360;18.742;2023-06-14T01:17:36;98601.39;;;11.92;75.21
55191;BME280;41070;50.360;18.742;2023-06-14T01:20:12;98605.05;;;11.89;75.25
55191;BME280;41070;50.360;18.742;2023-06-14T01:22:52;98610.80;;;11.89;75.18
55191;BME280;41070;50.360;18.742;2023-06-14T01:25:22;98611.17;;;11.85;75.07
55191;BME280;41070;50.360;18.742;2023-06-14T01:27:50;98607.86;;;11.85;75.24
55191;BME280;41070;50.360;18.742;2023-06-14T01:30:16;98609.89;;;11.83;75.36
55191;BME280;41070;50.360;18.742;2023-06-14T01:32:43;98605.02;;;11.84;75.48
55191;BME280;41070;50.360;18.742;2023-06-14T01:35:09;98603.51;;;11.82;75.54
55191;BME280;41070;50.360;18.742;2023-06-14T01:37:36;98609.55;;;11.81;75.45
55191;BME280;41070;50.360;18.742;2023-06-14T01:40:05;98607.13;;;11.79;75.38
55191;BME280;41070;50.360;18.742;2023-06-14T01:42:51;98613.03;;;11.80;75.67
55191;BME280;41070;50.360;18.742;2023-06-14T01:45:18;98612.27;;;11.82;75.70
55191;BME280;41070;50.360;18.742;2023-06-14T01:47:44;98610.39;;;11.88;75.67
55191;BME280;41070;50.360;18.742;2023-06-14T01:50:11;98603.77;;;11.89;75.46
55191;BME280;41070;50.360;18.742;2023-06-14T01:52:37;98601.27;;;11.88;75.20
55191;BME280;41070;50.360;18.742;2023-06-14T01:55:06;98601.51;;;11.85;75.21
55191;BME280;41070;50.360;18.742;2023-06-14T01:57:34;98599.58;;;11.84;75.40
55191;BME280;41070;50.360;18.742;2023-06-14T02:00:00;98598.70;;;11.87;75.46
55191;BME280;41070;50.360;18.742;2023-06-14T02:02:27;98599.09;;;11.90;75.36
55191;BME280;41070;50.360;18.742;2023-06-14T02:04:53;98602.48;;;11.89;75.62
55191;BME280;41070;50.360;18.742;2023-06-14T02:07:23;98603.34;;;11.85;75.55
55191;BME280;41070;50.360;18.742;2023-06-14T02:09:49;98606.03;;;11.81;76.02
55191;BME280;41070;50.360;18.742;2023-06-14T02:12:15;98604.71;;;11.74;75.98
55191;BME280;41070;50.360;18.742;2023-06-14T02:14:41;98599.64;;;11.63;76.10
55191;BME280;41070;50.360;18.742;2023-06-14T02:17:07;98597.20;;;11.50;76.88
55191;BME280;41070;50.360;18.742;2023-06-14T02:19:33;98593.98;;;11.39;77.52
55191;BME280;41070;50.360;18.742;2023-06-14T02:21:59;98593.80;;;11.29;77.83
55191;BME280;41070;50.360;18.742;2023-06-14T02:24:26;98591.98;;;11.22;78.21
55191;BME280;41070;50.360;18.742;2023-06-14T02:26:52;98588.84;;;11.19;78.50
55191;BME280;41070;50.360;18.742;2023-06-14T02:29:18;98589.06;;;11.19;78.77
55191;BME280;41070;50.360;18.742;2023-06-14T02:31:44;98591.26;;;11.18;79.15
55191;BME280;41070;50.360;18.742;2023-06-14T02:34:12;98597.52;;;11.21;79.46
55191;BME280;41070;50.360;18.742;2023-06-14T02:36:38;98601.96;;;11.28;79.86
55191;BME280;41070;50.360;18.742;2023-06-14T02:39:11;98602.33;;;11.39;79.89
55191;BME280;41070;50.360;18.742;2023-06-14T02:41:37;98605.70;;;11.50;79.90
55191;BME280;41070;50.360;18.742;2023-06-14T02:44:03;98602.35;;;11.61;80.01
55191;BME280;41070;50.360;18.742;2023-06-14T02:46:30;98601.84;;;11.69;79.80
55191;BME280;41070;50.360;18.742;2023-06-14T02:48:56;98603.38;;;11.76;79.80
55191;BME280;41070;50.360;18.742;2023-06-14T02:51:22;98604.99;;;11.86;79.82
55191;BME280;41070;50.360;18.742;2023-06-14T02:53:48;98604.04;;;11.94;79.86
55191;BME280;41070;50.360;18.742;2023-06-14T02:56:14;98604.79;;;11.97;79.97
55191;BME280;41070;50.360;18.742;2023-06-14T02:58:43;98605.02;;;11.94;80.26
55191;BME280;41070;50.360;18.742;2023-06-14T03:01:09;98599.45;;;11.95;80.64
55191;BME280;41070;50.360;18.742;2023-06-14T03:03:38;98591.05;;;11.96;81.07
55191;BME280;41070;50.360;18.742;2023-06-14T03:06:04;98594.25;;;11.95;81.11
55191;BME280;41070;50.360;18.742;2023-06-14T03:08:31;98599.45;;;11.95;81.19
55191;BME280;41070;50.360;18.742;2023-06-14T03:10:58;98594.59;;;11.93;81.66
55191;BME280;41070;50.360;18.742;2023-06-14T03:13:24;98595.27;;;11.95;81.84
55191;BME280;41070;50.360;18.742;2023-06-14T03:15:51;98599.34;;;12.01;82.07
55191;BME280;41070;50.360;18.742;2023-06-14T03:18:17;98596.48;;;12.03;82.25
55191;BME280;41070;50.360;18.742;2023-06-14T03:20:44;98592.99;;;12.05;82.46
55191;BME280;41070;50.360;18.742;2023-06-14T03:23:12;98596.33;;;12.07;82.42
55191;BME280;41070;50.360;18.742;2023-06-14T03:25:38;98593.39;;;12.09;82.69
55191;BME280;41070;50.360;18.742;2023-06-14T03:28:07;98589.83;;;12.10;82.80
55191;BME280;41070;50.360;18.742;2023-06-14T03:30:33;98592.48;;;12.13;82.76
55191;BME280;41070;50.360;18.742;2023-06-14T03:32:59;98593.66;;;12.15;82.95
55191;BME280;41070;50.360;18.742;2023-06-14T03:35:26;98594.02;;;12.17;83.22
55191;BME280;41070;50.360;18.742;2023-06-14T03:37:53;98592.73;;;12.15;83.06
55191;BME280;41070;50.360;18.742;2023-06-14T03:40:19;98598.71;;;12.18;82.95
55191;BME280;41070;50.360;18.742;2023-06-14T03:42:46;98598.77;;;12.21;82.58
55191;BME280;41070;50.360;18.742;2023-06-14T03:45:12;98599.86;;;12.26;82.72
55191;BME280;41070;50.360;18.742;2023-06-14T03:47:38;98606.26;;;12.31;82.68
55191;BME280;41070;50.360;18.742;2023-06-14T03:50:04;98605.59;;;12.33;82.20
55191;BME280;41070;50.360;18.742;2023-06-14T03:52:31;98601.45;;;12.36;82.07
55191;BME280;41070;50.360;18.742;2023-06-14T03:54:59;98604.91;;;12.33;82.19
55191;BME280;41070;50.360;18.742;2023-06-14T03:57:25;98605.51;;;12.33;82.00
55191;BME280;41070;50.360;18.742;2023-06-14T03:59:52;98606.07;;;12.30;82.09
55191;BME280;41070;50.360;18.742;2023-06-14T04:02:18;98600.66;;;12.32;82.33
55191;BME280;41070;50.360;18.742;2023-06-14T04:04:45;98600.40;;;12.38;82.16
55191;BME280;41070;50.360;18.742;2023-06-14T04:07:11;98602.27;;;12.39;82.08
55191;BME280;41070;50.360;18.742;2023-06-14T04:09:37;98604.28;;;12.40;81.77
55191;BME280;41070;50.360;18.742;2023-06-14T04:12:04;98606.21;;;12.37;81.94
55191;BME280;41070;50.360;18.742;2023-06-14T04:14:30;98609.33;;;12.39;82.10
55191;BME280;41070;50.360;18.742;2023-06-14T04:16:58;98612.38;;;12.38;82.23
55191;BME280;41070;50.360;18.742;2023-06-14T04:19:24;98609.38;;;12.38;82.48
55191;BME280;41070;50.360;18.742;2023-06-14T04:21:50;98610.14;;;12.38;82.67
55191;BME280;41070;50.360;18.742;2023-06-14T04:24:16;98603.13;;;12.40;82.54
